createdAt,value
2024-05-09T00:00:31.508Z,463.4615
2024-05-09T00:01:28.816Z,465.0769
2024-05-09T00:02:29.710Z,467.0833
2024-05-09T00:03:31.216Z,468.9231
2024-05-09T00:04:32.750Z,468.0769
2024-05-09T00:05:34.481Z,468.0000
2024-05-09T00:06:35.749Z,470.9231
2024-05-09T00:07:37.282Z,469.0769
2024-05-09T00:08:38.894Z,462.1538
2024-05-09T00:09:40.329Z,462.6154
2024-05-09T00:10:41.862Z,466.1538
2024-05-09T00:11:44.373Z,466.9231
2024-05-09T00:12:44.928Z,467.3333
2024-05-09T00:13:46.519Z,467.9231
2024-05-09T00:14:48.061Z,469.1538
2024-05-09T00:15:49.492Z,469.1538
2024-05-09T00:16:51.085Z,468.6154
2024-05-09T00:17:52.741Z,468.1538
2024-05-09T00:18:54.250Z,468.1538
2024-05-09T00:19:55.846Z,471.3846
2024-05-09T00:20:57.163Z,472.2308
2024-05-09T00:21:58.670Z,467.9231
2024-05-09T00:23:00.248Z,467.3077
2024-05-09T00:24:01.717Z,468.0000
2024-05-09T00:25:03.278Z,467.4615
2024-05-09T00:26:04.806Z,466.5385
2024-05-09T00:27:06.380Z,467.0769
2024-05-09T00:28:07.873Z,468.2308
2024-05-09T00:29:09.482Z,466.5385
2024-05-09T00:30:17.455Z,467.7692
2024-05-09T00:31:12.449Z,471.9231
2024-05-09T00:32:14.128Z,470.4615
2024-05-09T00:33:15.693Z,470.0000
2024-05-09T00:34:17.102Z,469.9231
2024-05-09T00:35:18.698Z,467.3846
2024-05-09T00:36:20.089Z,465.6154
2024-05-09T00:37:21.599Z,466.3077
2024-05-09T00:38:23.248Z,466.1538
2024-05-09T00:39:24.679Z,467.0769
2024-05-09T00:40:34.683Z,468.1538
2024-05-09T00:41:27.899Z,469.8462
2024-05-09T00:42:29.274Z,470.0769
2024-05-09T00:43:30.793Z,467.4615
2024-05-09T00:44:32.346Z,465.3846
2024-05-09T00:45:33.851Z,465.9231
2024-05-09T00:46:35.422Z,465.1538
2024-05-09T00:47:37.009Z,462.7692
2024-05-09T00:48:38.563Z,463.3846
2024-05-09T00:49:40.034Z,463.4615
2024-05-09T00:50:42.111Z,463.0000
2024-05-09T00:51:43.054Z,464.7692
2024-05-09T00:52:44.664Z,467.4615
2024-05-09T00:53:46.147Z,469.0000
2024-05-09T00:54:47.633Z,469.4615
2024-05-09T00:55:49.216Z,467.3077
2024-05-09T00:56:50.738Z,463.7692
2024-05-09T00:57:52.243Z,465.0000
2024-05-09T00:58:53.810Z,466.9231
2024-05-09T00:59:55.303Z,469.2308
2024-05-09T01:00:56.894Z,470.0000
2024-05-09T01:01:58.544Z,468.5385
2024-05-09T01:03:00.033Z,466.6154
2024-05-09T01:04:01.552Z,468.5385
2024-05-09T01:05:03.054Z,468.3846
2024-05-09T01:06:04.518Z,469.5385
2024-05-09T01:07:06.085Z,466.4615
2024-05-09T01:08:07.711Z,462.6923
2024-05-09T01:09:09.069Z,462.4615
2024-05-09T01:10:17.030Z,459.3077
2024-05-09T01:11:12.323Z,459.2308
2024-05-09T01:12:13.926Z,460.2308
2024-05-09T01:13:15.218Z,461.9231
2024-05-09T01:14:16.784Z,465.0000
2024-05-09T01:15:18.292Z,466.3846
2024-05-09T01:16:19.801Z,465.8462
2024-05-09T01:17:21.462Z,463.6154
2024-05-09T01:18:22.971Z,462.6154
2024-05-09T01:19:24.462Z,462.6923
2024-05-09T01:20:36.897Z,462.5385
2024-05-09T01:21:27.480Z,460.5000
2024-05-09T01:22:29.382Z,460.5385
2024-05-09T01:23:30.729Z,459.0000
2024-05-09T01:24:32.052Z,459.0769
2024-05-09T01:25:33.580Z,459.7692
2024-05-09T01:26:35.156Z,461.3846
2024-05-09T01:27:36.825Z,461.9231
2024-05-09T01:28:38.188Z,460.3846
2024-05-09T01:29:39.721Z,462.3077
2024-05-09T01:30:41.277Z,461.9231
2024-05-09T01:31:42.887Z,460.9231
2024-05-09T01:32:44.499Z,466.6923
2024-05-09T01:33:46.014Z,469.4615
2024-05-09T01:34:47.412Z,469.8462
2024-05-09T01:35:48.944Z,466.0769
2024-05-09T01:36:50.453Z,462.3846
2024-05-09T01:37:52.016Z,460.2308
2024-05-09T01:38:53.512Z,462.0000
2024-05-09T01:39:55.046Z,463.7692
2024-05-09T01:40:56.669Z,465.4615
2024-05-09T01:41:58.096Z,461.0000
2024-05-09T01:42:59.656Z,460.9231
2024-05-09T01:44:01.214Z,461.5385
2024-05-09T01:45:02.716Z,467.2308
2024-05-09T01:46:04.233Z,467.2308
2024-05-09T01:47:05.866Z,462.6154
2024-05-09T01:48:07.480Z,463.1538
2024-05-09T01:49:08.982Z,464.0769
2024-05-09T01:50:11.087Z,459.6154
2024-05-09T01:51:12.136Z,458.6154
2024-05-09T01:52:13.440Z,460.4615
2024-05-09T01:53:15.566Z,462.3846
2024-05-09T01:54:16.514Z,462.0833
2024-05-09T01:55:18.025Z,460.3077
2024-05-09T01:56:19.565Z,460.7692
2024-05-09T01:57:21.132Z,461.5385
2024-05-09T01:58:22.635Z,460.3846
2024-05-09T01:59:24.272Z,459.3846
2024-05-09T02:00:34.199Z,459.3077
2024-05-09T02:01:27.211Z,459.6923
2024-05-09T02:02:28.804Z,462.3077
2024-05-09T02:03:30.455Z,462.0769
2024-05-09T02:04:31.984Z,461.3846
2024-05-09T02:05:33.476Z,461.6154
2024-05-09T02:06:34.876Z,460.3846
2024-05-09T02:07:36.399Z,460.9231
2024-05-09T02:08:38.014Z,461.6923
2024-05-09T02:09:39.462Z,461.7692
2024-05-09T02:10:41.125Z,462.0769
2024-05-09T02:11:42.589Z,465.6154
2024-05-09T02:12:44.066Z,464.6923
2024-05-09T02:13:45.631Z,462.3077
2024-05-09T02:14:47.121Z,460.6923
2024-05-09T02:15:48.652Z,461.9231
2024-05-09T02:16:50.267Z,460.9231
2024-05-09T02:17:51.928Z,460.2308
2024-05-09T02:18:53.301Z,459.7692
2024-05-09T02:19:54.890Z,459.3077
2024-05-09T02:20:56.369Z,462.0769
2024-05-09T02:21:57.887Z,464.3077
2024-05-09T02:22:59.433Z,462.9231
2024-05-09T02:24:00.935Z,462.9231
2024-05-09T02:25:02.485Z,460.8462
2024-05-09T02:26:04.034Z,460.2308
2024-05-09T02:27:05.520Z,458.5385
2024-05-09T02:28:07.033Z,460.3846
2024-05-09T02:29:08.704Z,459.3846
2024-05-09T02:30:18.698Z,460.3846
2024-05-09T02:31:11.719Z,457.3077
2024-05-09T02:32:13.447Z,458.3077
2024-05-09T02:33:15.092Z,462.3077
2024-05-09T02:34:16.383Z,465.9231
2024-05-09T02:35:17.860Z,465.4615
2024-05-09T02:36:19.383Z,464.9231
2024-05-09T02:37:20.893Z,459.9231
2024-05-09T02:38:22.511Z,459.7692
2024-05-09T02:39:23.954Z,457.8462
2024-05-09T02:40:33.564Z,459.6923
2024-05-09T02:41:27.149Z,459.9231
2024-05-09T02:42:28.560Z,461.7692
2024-05-09T02:43:30.133Z,459.9231
2024-05-09T02:44:31.723Z,459.6923
2024-05-09T02:46:34.698Z,461.3846
2024-05-09T02:47:36.351Z,464.1538
2024-05-09T02:48:37.906Z,462.0000
2024-05-09T02:49:39.347Z,458.9231
2024-05-09T02:50:41.178Z,458.7692
2024-05-09T02:51:42.338Z,456.1538
2024-05-09T02:52:43.956Z,456.2308
2024-05-09T02:53:45.464Z,459.0769
2024-05-09T02:54:46.934Z,457.3846
2024-05-09T02:55:48.511Z,456.1538
2024-05-09T02:56:50.017Z,459.0000
2024-05-09T02:57:51.545Z,460.4615
2024-05-09T02:58:53.084Z,458.6154
2024-05-09T02:59:54.619Z,459.3077
2024-05-09T03:00:56.229Z,456.3846
2024-05-09T03:01:57.801Z,457.6154
2024-05-09T03:02:59.366Z,459.2308
2024-05-09T03:04:00.985Z,458.5385
2024-05-09T03:05:02.328Z,456.1538
2024-05-09T03:06:03.801Z,457.1538
2024-05-09T03:07:05.367Z,458.1538
2024-05-09T03:08:07.088Z,461.0769
2024-05-09T03:09:08.421Z,458.0769
2024-05-09T03:10:18.247Z,457.4615
2024-05-09T03:11:11.605Z,457.3077
2024-05-09T03:12:13.171Z,456.3077
2024-05-09T03:13:15.928Z,456.2308
2024-05-09T03:14:16.135Z,457.3846
2024-05-09T03:15:17.622Z,456.8462
2024-05-09T03:16:19.109Z,456.9231
2024-05-09T03:17:20.889Z,455.2308
2024-05-09T03:18:22.322Z,454.9231
2024-05-09T03:19:23.808Z,454.1538
2024-05-09T03:20:32.416Z,455.1538
2024-05-09T03:21:26.789Z,455.4615
2024-05-09T03:22:28.311Z,459.4615
2024-05-09T03:23:29.976Z,459.3077
2024-05-09T03:24:31.368Z,461.3846
2024-05-09T03:25:32.895Z,460.2308
2024-05-09T03:26:35.412Z,461.8462
2024-05-09T03:27:35.990Z,464.9231
2024-05-09T03:28:37.501Z,463.5385
2024-05-09T03:29:39.089Z,463.0769
2024-05-09T03:30:42.887Z,463.3846
2024-05-09T03:31:42.179Z,460.5385
2024-05-09T03:32:43.808Z,457.3077
2024-05-09T03:33:45.397Z,458.3077
2024-05-09T03:34:46.753Z,458.1538
2024-05-09T03:35:48.794Z,455.9231
2024-05-09T03:36:49.792Z,460.1538
2024-05-09T03:37:51.365Z,458.0769
2024-05-09T03:38:52.811Z,457.1538
2024-05-09T03:39:54.359Z,456.6154
2024-05-09T03:40:55.921Z,458.0769
2024-05-09T03:41:57.419Z,456.3846
2024-05-09T03:42:59.076Z,456.7692
2024-05-09T03:44:00.612Z,456.5385
2024-05-09T03:45:02.020Z,454.3077
2024-05-09T03:46:03.553Z,456.0000
2024-05-09T03:47:05.128Z,456.5385
2024-05-09T03:48:06.748Z,454.7692
2024-05-09T03:49:08.318Z,454.4615
2024-05-09T03:50:18.008Z,453.2308
2024-05-09T03:51:11.309Z,452.2308
2024-05-09T03:52:12.750Z,451.4615
2024-05-09T03:53:14.502Z,452.0769
2024-05-09T03:54:15.822Z,453.1538
2024-05-09T03:55:17.353Z,455.2308
2024-05-09T03:56:18.973Z,454.3846
2024-05-09T03:57:20.420Z,456.2308
2024-05-09T03:58:21.929Z,456.3077
2024-05-09T03:59:23.488Z,455.8462
2024-05-09T04:00:31.674Z,458.2308
2024-05-09T04:01:26.626Z,457.6154
2024-05-09T04:02:28.184Z,457.5385
2024-05-09T04:03:29.797Z,455.3846
2024-05-09T04:04:31.318Z,460.4615
2024-05-09T04:05:32.947Z,460.4615
2024-05-09T04:06:34.191Z,458.2308
2024-05-09T04:07:35.737Z,457.2308
2024-05-09T04:08:37.391Z,454.5385
2024-05-09T04:09:38.801Z,453.9231
2024-05-09T04:10:40.378Z,457.7692
2024-05-09T04:11:41.943Z,457.9231
2024-05-09T04:12:43.380Z,456.6154
2024-05-09T04:13:44.960Z,456.0000
2024-05-09T04:14:46.451Z,457.5385
2024-05-09T04:15:48.011Z,459.3077
2024-05-09T04:16:49.524Z,458.9231
2024-05-09T04:17:51.315Z,459.1538
2024-05-09T04:18:52.803Z,460.3846
2024-05-09T04:19:54.192Z,458.4615
2024-05-09T04:20:55.788Z,458.8462
2024-05-09T04:21:57.212Z,455.9231
2024-05-09T04:22:58.752Z,457.6923
2024-05-09T04:24:00.255Z,456.8462
2024-05-09T04:25:01.786Z,457.9231
2024-05-09T04:26:03.387Z,458.9231
2024-05-09T04:27:04.862Z,459.7692
2024-05-09T04:28:06.408Z,455.6923
2024-05-09T04:29:07.945Z,456.8462
2024-05-09T04:30:15.472Z,458.1538
2024-05-09T04:31:10.970Z,456.8462
2024-05-09T04:32:12.691Z,456.2308
2024-05-09T04:33:14.953Z,453.7692
2024-05-09T04:34:15.739Z,456.1538
2024-05-09T04:35:17.922Z,453.3077
2024-05-09T04:36:18.636Z,451.3333
2024-05-09T04:37:20.199Z,451.8462
2024-05-09T04:38:21.763Z,454.3846
2024-05-09T04:39:23.240Z,452.3846
2024-05-09T04:40:31.613Z,455.4615
2024-05-09T04:41:26.391Z,454.4615
2024-05-09T04:42:27.841Z,454.2308
2024-05-09T04:43:29.378Z,457.0000
2024-05-09T04:44:30.948Z,455.2308
2024-05-09T04:45:32.429Z,456.3846
2024-05-09T04:46:33.956Z,456.5385
2024-05-09T04:47:35.669Z,457.0000
2024-05-09T04:48:37.192Z,454.7692
2024-05-09T04:49:38.670Z,453.3077
2024-05-09T04:50:40.305Z,456.3846
2024-05-09T04:51:41.622Z,457.6923
2024-05-09T04:52:43.142Z,457.3846
2024-05-09T04:53:44.899Z,457.0000
2024-05-09T04:54:46.267Z,457.3077
2024-05-09T04:55:47.852Z,456.7692
2024-05-09T04:56:49.317Z,456.6923
2024-05-09T04:57:50.780Z,457.5385
2024-05-09T04:58:52.369Z,460.3077
2024-05-09T04:59:53.849Z,464.0769
2024-05-09T05:00:55.423Z,464.6923
2024-05-09T05:01:57.950Z,463.3846
2024-05-09T05:02:58.614Z,462.9231
2024-05-09T05:04:00.090Z,461.3846
2024-05-09T05:05:01.606Z,459.4615
2024-05-09T05:06:03.138Z,456.5385
2024-05-09T05:07:04.568Z,456.0769
2024-05-09T05:08:06.264Z,458.7692
2024-05-09T05:09:07.627Z,460.0000
2024-05-09T05:10:11.923Z,458.6154
2024-05-09T05:11:10.775Z,457.3846
2024-05-09T05:12:12.416Z,457.3846
2024-05-09T05:13:13.745Z,456.1538
2024-05-09T05:14:15.318Z,454.3077
2024-05-09T05:15:16.799Z,455.3077
2024-05-09T05:16:18.341Z,456.3846
2024-05-09T05:17:19.928Z,453.5385
2024-05-09T05:18:21.527Z,455.7692
2024-05-09T05:19:23.004Z,457.2308
2024-05-09T05:20:32.575Z,458.0769
2024-05-09T05:21:26.189Z,458.1667
2024-05-09T05:22:27.548Z,459.2308
2024-05-09T05:23:29.149Z,459.6154
2024-05-09T05:24:30.610Z,453.7692
2024-05-09T05:25:32.111Z,453.2308
2024-05-09T05:26:33.770Z,451.6154
2024-05-09T05:27:35.212Z,454.7692
2024-05-09T05:28:36.730Z,456.1538
2024-05-09T05:29:38.376Z,455.5385
2024-05-09T05:30:39.798Z,455.4615
2024-05-09T05:31:41.362Z,455.8462
2024-05-09T05:32:42.989Z,453.3846
2024-05-09T05:33:44.422Z,458.0000
2024-05-09T05:34:46.030Z,459.1538
2024-05-09T05:35:47.536Z,461.6923
2024-05-09T05:36:48.954Z,462.3846
2024-05-09T05:37:50.585Z,463.8462
2024-05-09T05:38:52.165Z,463.5385
2024-05-09T05:39:53.565Z,460.5385
2024-05-09T05:40:55.267Z,459.3077
2024-05-09T05:41:57.442Z,458.8462
2024-05-09T05:42:58.149Z,459.8462
2024-05-09T05:43:59.721Z,460.8462
2024-05-09T05:45:01.217Z,460.2308
2024-05-09T05:46:02.778Z,458.0000
2024-05-09T05:47:04.417Z,458.7692
2024-05-09T05:48:06.612Z,458.2308
2024-05-09T05:49:07.425Z,458.6923
2024-05-09T05:50:20.481Z,455.3846
2024-05-09T05:51:10.439Z,453.1538
2024-05-09T05:52:11.952Z,451.2308
2024-05-09T05:53:13.727Z,452.8462
2024-05-09T05:54:14.994Z,454.6923
2024-05-09T05:55:16.531Z,455.9231
2024-05-09T05:56:18.099Z,455.7692
2024-05-09T05:57:19.580Z,457.2308
2024-05-09T05:58:21.101Z,457.8462
2024-05-09T05:59:22.815Z,453.9231
2024-05-09T06:00:30.398Z,456.3077
2024-05-09T06:01:25.766Z,458.0769
2024-05-09T06:02:27.311Z,461.6154
2024-05-09T06:03:28.791Z,459.5385
2024-05-09T06:04:30.356Z,456.2308
2024-05-09T06:05:32.146Z,455.0769
2024-05-09T06:06:33.354Z,455.3077
2024-05-09T06:07:34.904Z,454.3077
2024-05-09T06:08:36.463Z,453.7692
2024-05-09T06:09:37.946Z,451.8462
2024-05-09T06:10:41.026Z,452.3077
2024-05-09T06:11:41.085Z,453.4615
2024-05-09T06:12:42.555Z,455.0769
2024-05-09T06:13:44.141Z,453.4615
2024-05-09T06:14:45.594Z,455.2308
2024-05-09T06:15:47.147Z,453.3077
2024-05-09T06:16:48.694Z,451.0000
2024-05-09T06:17:50.331Z,452.2308
2024-05-09T06:18:51.973Z,449.6923
2024-05-09T06:19:53.738Z,449.0769
2024-05-09T06:20:54.850Z,449.2308
2024-05-09T06:21:56.321Z,454.3077
2024-05-09T06:22:57.878Z,456.5385
2024-05-09T06:23:59.430Z,456.6154
2024-05-09T06:25:00.934Z,458.1538
2024-05-09T06:26:02.968Z,457.9231
2024-05-09T06:27:04.021Z,458.6667
2024-05-09T06:28:05.501Z,456.7692
2024-05-09T06:29:07.103Z,458.0769
2024-05-09T06:30:14.381Z,459.3077
2024-05-09T06:31:10.114Z,458.3846
2024-05-09T06:32:11.818Z,459.0000
2024-05-09T06:33:15.450Z,458.0769
2024-05-09T06:34:14.898Z,458.0000
2024-05-09T06:35:16.947Z,457.8462
2024-05-09T06:36:17.837Z,455.8333
2024-05-09T06:37:19.383Z,455.3846
2024-05-09T06:38:20.904Z,453.2308
2024-05-09T06:39:22.408Z,452.0000
2024-05-09T06:40:29.259Z,451.7692
2024-05-09T06:41:25.575Z,453.2308
2024-05-09T06:42:27.033Z,452.9231
2024-05-09T06:43:28.539Z,455.4615
2024-05-09T06:44:30.214Z,455.2308
2024-05-09T06:45:31.609Z,453.1538
2024-05-09T06:46:33.126Z,453.0769
2024-05-09T06:47:34.812Z,454.0000
2024-05-09T06:48:36.299Z,455.7692
2024-05-09T06:49:37.910Z,455.3846
2024-05-09T06:50:40.054Z,453.0769
2024-05-09T06:51:40.781Z,451.3846
2024-05-09T06:52:42.313Z,451.7692
2024-05-09T06:53:43.843Z,450.8462
2024-05-09T06:54:45.936Z,453.0000
2024-05-09T06:55:47.038Z,456.5833
2024-05-09T06:56:48.405Z,456.3077
2024-05-09T06:57:49.943Z,455.3077
2024-05-09T06:58:51.498Z,456.5385
2024-05-09T06:59:53.023Z,458.1538
2024-05-09T07:00:54.567Z,457.6923
2024-05-09T07:01:56.154Z,453.7692
2024-05-09T07:02:58.985Z,451.3077
2024-05-09T07:03:59.210Z,450.0000
2024-05-09T07:05:00.931Z,452.7692
2024-05-09T07:06:02.251Z,454.3077
2024-05-09T07:07:03.689Z,454.2308
2024-05-09T07:08:05.998Z,454.3846
2024-05-09T07:09:07.462Z,453.1667
2024-05-09T07:10:14.798Z,453.5000
2024-05-09T07:11:09.919Z,451.9231
2024-05-09T07:12:11.471Z,454.9231
2024-05-09T07:13:13.063Z,455.3077
2024-05-09T07:14:14.466Z,455.5385
2024-05-09T07:15:15.945Z,453.3846
2024-05-09T07:16:17.442Z,453.6923
2024-05-09T07:17:19.101Z,455.0769
2024-05-09T07:18:20.933Z,455.5385
2024-05-09T07:19:22.149Z,450.7692
2024-05-09T07:20:32.121Z,453.4615
2024-05-09T07:21:25.130Z,452.3077
2024-05-09T07:22:26.612Z,454.0769
2024-05-09T07:23:28.299Z,452.3846
2024-05-09T07:24:29.659Z,451.2308
2024-05-09T07:25:31.235Z,454.7692
2024-05-09T07:26:33.022Z,455.0769
2024-05-09T07:27:34.268Z,451.6923
2024-05-09T07:28:35.804Z,449.9231
2024-05-09T07:29:38.860Z,449.0000
2024-05-09T07:30:38.841Z,450.0000
2024-05-09T07:31:40.412Z,453.9231
2024-05-09T07:32:42.010Z,453.6923
2024-05-09T07:33:43.497Z,450.3846
2024-05-09T07:34:45.113Z,453.9231
2024-05-09T07:35:46.550Z,451.6923
2024-05-09T07:36:48.043Z,450.3846
2024-05-09T07:37:49.622Z,455.6154
2024-05-09T07:38:51.106Z,455.0000
2024-05-09T07:39:52.586Z,451.9231
2024-05-09T07:40:54.122Z,450.4615
2024-05-09T07:41:55.630Z,451.7692
2024-05-09T07:42:57.154Z,453.0769
2024-05-09T07:43:58.746Z,453.8462
2024-05-09T07:45:17.132Z,453.6923
2024-05-09T07:46:51.610Z,453.9231
2024-05-09T07:48:14.149Z,454.6154
2024-05-09T07:53:29.195Z,454.7692
2024-05-09T07:53:37.196Z,452.6923
2024-05-09T07:54:14.144Z,451.3077
2024-05-09T07:55:15.655Z,453.2308
2024-05-09T07:56:17.754Z,452.0769
2024-05-09T07:57:18.691Z,449.6154
2024-05-09T07:58:20.059Z,453.4615
2024-05-09T07:59:21.635Z,453.4615
2024-05-09T08:00:29.753Z,453.0000
2024-05-09T08:01:24.822Z,452.2308
2024-05-09T08:02:26.461Z,457.0000
2024-05-09T08:03:27.787Z,458.0000
2024-05-09T08:04:29.434Z,454.6923
2024-05-09T08:05:31.058Z,453.1538
2024-05-09T08:06:32.336Z,453.4615
2024-05-09T08:07:33.844Z,452.0769
2024-05-09T08:08:35.390Z,452.3077
2024-05-09T08:09:38.394Z,452.1538
2024-05-09T08:10:38.499Z,454.0769
2024-05-09T08:11:39.966Z,452.2308
2024-05-09T08:12:41.545Z,453.5385
2024-05-09T08:13:43.036Z,450.7692
2024-05-09T08:14:44.547Z,447.3846
2024-05-09T08:15:47.002Z,447.6154
2024-05-09T08:16:48.468Z,448.1667
2024-05-09T08:17:49.168Z,443.8333
2024-05-09T08:18:50.806Z,443.7692
2024-05-09T08:19:52.246Z,445.1538
2024-05-09T08:20:53.734Z,445.5385
2024-05-09T08:21:55.556Z,450.0769
2024-05-09T08:22:56.815Z,451.1538
2024-05-09T08:23:58.330Z,450.0000
2024-05-09T08:24:59.926Z,445.3846
2024-05-09T08:26:01.373Z,450.2308
2024-05-09T08:27:02.933Z,451.6154
2024-05-09T08:28:04.549Z,451.3846
2024-05-09T08:29:05.979Z,449.9231
2024-05-09T08:30:10.219Z,450.0000
2024-05-09T08:31:09.080Z,449.8462
2024-05-09T08:32:10.617Z,448.6923
2024-05-09T08:33:12.200Z,452.1538
2024-05-09T08:34:13.832Z,452.6923
2024-05-09T08:35:15.178Z,455.0000
2024-05-09T08:36:16.673Z,452.5385
2024-05-09T08:37:22.493Z,451.0769
2024-05-09T08:38:19.739Z,450.4615
2024-05-09T08:39:21.274Z,454.1538
2024-05-09T08:40:30.701Z,458.0769
2024-05-09T08:41:24.331Z,456.0000
2024-05-09T08:42:25.859Z,453.6154
2024-05-09T08:43:27.406Z,453.0000
2024-05-09T08:44:28.955Z,451.1538
2024-05-09T08:45:30.596Z,449.6154
2024-05-09T08:46:32.035Z,450.0000
2024-05-09T08:47:33.555Z,451.4615
2024-05-09T08:48:35.177Z,448.4615
2024-05-09T08:49:37.777Z,445.7692
2024-05-09T08:50:39.706Z,445.6154
2024-05-09T08:51:39.691Z,444.3846
2024-05-09T08:52:41.974Z,441.1538
2024-05-09T08:53:42.703Z,440.6154
2024-05-09T08:54:44.246Z,444.7692
2024-05-09T08:55:45.784Z,448.4615
2024-05-09T08:56:47.254Z,446.3846
2024-05-09T08:57:48.820Z,443.7692
2024-05-09T08:58:50.346Z,446.7692
2024-05-09T08:59:51.852Z,451.1538
2024-05-09T09:00:53.513Z,451.3077
2024-05-09T09:01:55.043Z,450.3077
2024-05-09T09:02:57.020Z,447.8462
2024-05-09T09:03:58.038Z,447.0000
2024-05-09T09:04:59.660Z,447.0000
2024-05-09T09:06:01.058Z,447.0769
2024-05-09T09:07:03.629Z,446.6154
2024-05-09T09:08:04.079Z,450.9231
2024-05-09T09:09:05.626Z,451.1538
2024-05-09T09:10:08.715Z,450.0769
2024-05-09T09:11:08.672Z,444.3846
2024-05-09T09:12:10.771Z,442.0000
2024-05-09T09:13:11.852Z,441.0000
2024-05-09T09:14:13.251Z,442.3846
2024-05-09T09:15:14.811Z,446.6154
2024-05-09T09:16:16.382Z,447.2308
2024-05-09T09:17:17.908Z,447.0769
2024-05-09T09:18:19.563Z,448.5385
2024-05-09T09:19:21.146Z,448.3077
2024-05-09T09:20:26.571Z,445.8462
2024-05-09T09:21:23.947Z,448.4615
2024-05-09T09:22:25.493Z,447.7692
2024-05-09T09:23:27.032Z,450.1538
2024-05-09T09:24:28.611Z,453.3077
2024-05-09T09:25:30.093Z,451.4615
2024-05-09T09:26:31.595Z,451.4615
2024-05-09T09:27:33.169Z,452.0000
2024-05-09T09:28:34.663Z,450.3846
2024-05-09T09:29:36.601Z,447.6154
2024-05-09T09:30:38.265Z,449.5000
2024-05-09T09:31:39.320Z,451.6923
2024-05-09T09:32:40.880Z,450.0769
2024-05-09T09:33:42.488Z,448.1538
2024-05-09T09:34:43.964Z,446.0769
2024-05-09T09:35:45.355Z,445.3846
2024-05-09T09:36:46.966Z,441.8462
2024-05-09T09:37:48.396Z,441.8462
2024-05-09T09:38:49.940Z,445.7692
2024-05-09T09:39:51.555Z,445.0769
2024-05-09T09:40:53.037Z,443.3846
2024-05-09T09:41:54.521Z,444.1538
2024-05-09T09:42:56.118Z,444.3077
2024-05-09T09:43:57.570Z,443.3077
2024-05-09T09:45:04.896Z,442.9231
2024-05-09T09:46:00.684Z,443.4167
2024-05-09T09:47:02.191Z,443.7692
2024-05-09T09:48:03.784Z,442.3077
2024-05-09T09:49:05.639Z,443.3077
2024-05-09T09:50:12.040Z,444.1667
2024-05-09T09:51:08.308Z,445.0000
2024-05-09T09:52:11.411Z,446.8462
2024-05-09T09:53:11.320Z,446.5000
2024-05-09T09:54:12.891Z,445.3846
2024-05-09T09:55:14.549Z,443.4615
2024-05-09T09:56:15.937Z,444.9231
2024-05-09T09:57:17.447Z,446.3077
2024-05-09T09:58:19.048Z,445.6154
2024-05-09T09:59:20.514Z,446.0769
2024-05-09T10:00:27.163Z,453.6923
2024-05-09T10:01:23.602Z,453.1538
2024-05-09T10:02:25.231Z,450.2308
2024-05-09T10:03:26.696Z,446.7692
2024-05-09T10:04:28.244Z,446.3846
2024-05-09T10:05:30.105Z,445.0769
2024-05-09T10:06:31.240Z,446.9231
2024-05-09T10:07:32.724Z,447.9231
2024-05-09T10:08:35.005Z,449.3077
2024-05-09T10:09:36.054Z,452.0000
2024-05-09T10:10:37.392Z,452.3077
2024-05-09T10:11:45.176Z,451.1538
2024-05-09T10:12:40.388Z,447.3077
2024-05-09T10:13:41.928Z,445.6154
2024-05-09T10:14:43.431Z,447.6923
2024-05-09T10:15:44.978Z,446.1538
2024-05-09T10:16:46.496Z,444.6154
2024-05-09T10:17:48.080Z,445.1538
2024-05-09T10:18:49.635Z,447.0000
2024-05-09T10:19:51.130Z,448.3846
2024-05-09T10:20:52.598Z,449.0000
2024-05-09T10:21:54.161Z,447.5385
2024-05-09T10:22:55.635Z,441.3846
2024-05-09T10:23:57.183Z,443.0769
2024-05-09T10:24:59.177Z,444.0769
2024-05-09T10:26:00.278Z,446.4615
2024-05-09T10:27:01.770Z,446.0769
2024-05-09T10:28:03.330Z,444.5385
2024-05-09T10:29:04.785Z,443.2308
2024-05-09T10:30:11.563Z,444.7692
2024-05-09T10:31:08.054Z,444.0000
2024-05-09T10:32:09.395Z,444.0000
2024-05-09T10:33:11.148Z,445.2308
2024-05-09T10:34:12.633Z,443.1538
2024-05-09T10:35:14.035Z,442.7692
2024-05-09T10:36:15.605Z,443.0769
2024-05-09T10:37:17.195Z,444.4615
2024-05-09T10:38:18.643Z,445.9231
2024-05-09T10:39:20.164Z,445.5385
2024-05-09T10:41:23.372Z,444.6154
2024-05-09T10:42:24.740Z,444.6154
2024-05-09T10:43:26.323Z,441.4615
2024-05-09T10:44:27.822Z,443.5385
2024-05-09T10:45:29.379Z,443.4615
2024-05-09T10:46:30.987Z,445.0000
2024-05-09T10:47:32.589Z,445.5385
2024-05-09T10:48:34.038Z,445.3846
2024-05-09T10:49:35.543Z,442.0000
2024-05-09T10:50:37.003Z,439.1538
2024-05-09T10:51:39.136Z,440.3077
2024-05-09T10:52:40.065Z,442.1667
2024-05-09T10:53:41.589Z,444.1538
2024-05-09T10:54:43.179Z,445.1538
2024-05-09T10:55:44.661Z,442.4615
2024-05-09T10:56:46.199Z,442.2308
2024-05-09T10:57:47.763Z,439.1538
2024-05-09T10:58:49.267Z,438.9231
2024-05-09T10:59:50.795Z,439.1538
2024-05-09T11:00:52.397Z,438.6923
2024-05-09T11:01:54.635Z,436.7692
2024-05-09T11:02:55.409Z,436.5385
2024-05-09T11:03:57.011Z,439.3077
2024-05-09T11:04:58.518Z,441.1538
2024-05-09T11:05:59.948Z,437.3846
2024-05-09T11:07:02.893Z,437.7692
2024-05-09T11:08:03.038Z,437.0769
2024-05-09T11:09:04.753Z,435.6923
2024-05-09T11:10:09.661Z,435.5385
2024-05-09T11:11:08.998Z,436.3077
2024-05-09T11:12:09.261Z,436.8333
2024-05-09T11:13:10.778Z,436.4615
2024-05-09T11:14:12.214Z,436.4615
2024-05-09T11:15:13.755Z,435.9231
2024-05-09T11:16:15.317Z,440.6923
2024-05-09T11:17:16.826Z,440.6154
2024-05-09T11:18:19.799Z,438.8462
2024-05-09T11:19:20.152Z,437.1538
2024-05-09T11:20:26.959Z,437.8462
2024-05-09T11:21:22.920Z,442.5385
2024-05-09T11:22:24.479Z,443.3846
2024-05-09T11:23:25.990Z,441.0769
2024-05-09T11:24:27.646Z,438.4615
2024-05-09T11:25:29.027Z,437.8462
2024-05-09T11:26:30.555Z,438.1538
2024-05-09T11:27:32.124Z,441.0000
2024-05-09T11:28:33.641Z,436.4615
2024-05-09T11:29:35.156Z,434.6923
2024-05-09T11:30:36.720Z,434.1538
2024-05-09T11:31:38.260Z,435.8462
2024-05-09T11:32:39.801Z,437.3846
2024-05-09T11:33:41.490Z,435.2308
2024-05-09T11:34:42.991Z,432.3077
2024-05-09T11:35:44.353Z,432.3077
2024-05-09T11:36:45.920Z,431.4615
2024-05-09T11:37:48.058Z,433.7692
2024-05-09T11:38:49.584Z,439.2500
2024-05-09T11:39:50.536Z,445.0833
2024-05-09T11:40:52.082Z,442.6923
2024-05-09T11:41:53.522Z,437.8462
2024-05-09T11:42:55.144Z,435.6154
2024-05-09T11:43:56.624Z,434.6923
2024-05-09T11:44:58.117Z,436.2308
2024-05-09T11:45:59.800Z,439.8462
2024-05-09T11:47:01.221Z,439.0769
2024-05-09T11:48:02.999Z,436.0769
2024-05-09T11:49:04.431Z,435.0000
2024-05-09T11:50:08.322Z,433.3077
2024-05-09T11:51:07.297Z,434.2500
2024-05-09T11:52:08.923Z,439.6154
2024-05-09T11:53:10.374Z,443.9231
2024-05-09T11:54:11.898Z,443.6923
2024-05-09T11:55:13.426Z,439.9231
2024-05-09T11:56:14.974Z,438.7692
2024-05-09T11:57:16.541Z,439.7692
2024-05-09T11:58:18.859Z,438.0769
2024-05-09T11:59:19.572Z,433.7692
2024-05-09T12:00:29.282Z,432.6923
2024-05-09T12:01:25.075Z,433.2308
2024-05-09T12:02:24.423Z,437.9231
2024-05-09T12:03:25.736Z,436.6154
2024-05-09T12:04:27.317Z,436.1538
2024-05-09T12:05:29.067Z,435.7692
2024-05-09T12:06:30.244Z,434.3846
2024-05-09T12:07:31.839Z,433.7692
2024-05-09T12:08:33.290Z,434.0000